createdAt,value
2016-06-09T00:00:11.499Z,1009.95
2016-06-09T00:03:24.152Z,1010.01
2016-06-09T00:06:41.395Z,1009.89
2016-06-09T00:09:45.841Z,1009.97
2016-06-09T00:12:58.585Z,1009.93
2016-06-09T00:16:11.859Z,1009.95
2016-06-09T00:19:25.279Z,1009.89
2016-06-09T00:22:42.319Z,1009.87
2016-06-09T00:25:46.906Z,1009.8
2016-06-09T00:29:00.385Z,1009.84
2016-06-09T00:32:13.363Z,1009.84
2016-06-09T00:35:26.844Z,1009.89
2016-06-09T00:38:40.744Z,1009.91
2016-06-09T00:41:49.222Z,1009.87
2016-06-09T00:44:53.871Z,1009.85
2016-06-09T00:48:07.052Z,1009.82
2016-06-09T00:51:19.909Z,1009.82
2016-06-09T00:54:31.777Z,1009.89
2016-06-09T00:57:45.552Z,1009.89
2016-06-09T01:00:58.717Z,1009.97
2016-06-09T01:04:11.617Z,1009.89
2016-06-09T01:07:24.207Z,1009.91
2016-06-09T01:10:40.279Z,1009.97
2016-06-09T01:13:48.820Z,1009.89
2016-06-09T01:16:53.188Z,1010.01
2016-06-09T01:20:05.916Z,1009.99
2016-06-09T01:23:19.006Z,1010.03
2016-06-09T01:26:29.375Z,1009.95
2016-06-09T01:29:46.635Z,1009.95
2016-06-09T01:32:51.315Z,1009.95
2016-06-09T01:36:04.199Z,1009.93
2016-06-09T01:39:17.334Z,1009.93
2016-06-09T01:42:30.377Z,1009.99
2016-06-09T01:45:47.716Z,1009.95
2016-06-09T01:48:52.084Z,1009.87
2016-06-09T01:52:05.405Z,1010.01
2016-06-09T01:55:18.523Z,1009.89
2016-06-09T01:58:31.348Z,1009.95
2016-06-09T02:01:48.201Z,1009.97
2016-06-09T02:04:52.852Z,1009.85
2016-06-09T02:08:06.064Z,1009.95
2016-06-09T02:11:19.448Z,1009.95
2016-06-09T02:14:32.694Z,1009.97
2016-06-09T02:17:50.157Z,1009.93
2016-06-09T02:20:54.698Z,1009.99
2016-06-09T02:24:07.894Z,1009.89
2016-06-09T02:27:21.390Z,1009.89
2016-06-09T02:30:34.838Z,1009.85
2016-06-09T02:33:48.534Z,1009.95
2016-06-09T02:37:01.809Z,1009.85
2016-06-09T02:40:13.412Z,1010.05
2016-06-09T02:43:26.502Z,1009.87
2016-06-09T02:46:43.949Z,1009.97
2016-06-09T02:49:48.427Z,1010.01
2016-06-09T02:53:01.624Z,1009.95
2016-06-09T02:56:14.681Z,1009.99
2016-06-09T02:59:28.130Z,1010.01
2016-06-09T03:02:45.327Z,1009.93
2016-06-09T03:05:49.883Z,1010.03
2016-06-09T03:09:03.002Z,1010.05
2016-06-09T03:12:16.401Z,1010.03
2016-06-09T03:15:26.210Z,1010.01
2016-06-09T03:18:43.376Z,1009.97
2016-06-09T03:21:51.838Z,1010.03
2016-06-09T03:24:55.190Z,1010.03
2016-06-09T03:28:09.543Z,1010.09
2016-06-09T03:31:22.834Z,1010.05
2016-06-09T03:34:36.034Z,1010.09
2016-06-09T03:37:49.277Z,1010.17
2016-06-09T03:41:02.631Z,1010.21
2016-06-09T03:44:15.843Z,1010.09
2016-06-09T03:47:29.074Z,1010.15
2016-06-09T03:50:45.864Z,1010.25
2016-06-09T03:53:50.202Z,1010.09
2016-06-09T03:57:03.399Z,1010.15
2016-06-09T04:00:16.689Z,1010.23
2016-06-09T04:03:29.968Z,1010.11
2016-06-09T04:06:45.852Z,1010.27
2016-06-09T04:09:50.126Z,1010.19
2016-06-09T04:13:03.245Z,1010.17
2016-06-09T04:16:16.255Z,1010.17
2016-06-09T04:19:29.392Z,1010.11
2016-06-09T04:22:46.619Z,1010.17
2016-06-09T04:25:51.128Z,1010.23
2016-06-09T04:29:04.387Z,1010.19
2016-06-09T04:32:17.601Z,1010.13
2016-06-09T04:35:30.846Z,1010.21
2016-06-09T04:38:48.200Z,1010.17
2016-06-09T04:41:52.631Z,1010.17
2016-06-09T04:45:05.108Z,1010.15
2016-06-09T04:48:17.884Z,1010.17
2016-06-09T04:51:31.146Z,1010.17
2016-06-09T04:54:48.452Z,1010.19
2016-06-09T04:57:52.727Z,1010.21
2016-06-09T05:01:05.549Z,1010.19
2016-06-09T05:04:18.558Z,1010.23
2016-06-09T05:07:31.773Z,1010.19
2016-06-09T05:10:49.251Z,1010.13
2016-06-09T05:13:53.666Z,1010.17
2016-06-09T05:17:06.426Z,1010.19
2016-06-09T05:20:16.076Z,1010.19
2016-06-09T05:23:29.635Z,1010.09
2016-06-09T05:26:47.863Z,1010.13
2016-06-09T05:29:52.247Z,1010.03
2016-06-09T05:33:07.584Z,1010.05
2016-06-09T05:36:21.219Z,1010.09
2016-06-09T05:39:35.247Z,1010.11
2016-06-09T05:42:49.444Z,1010.03
2016-06-09T05:46:03.795Z,1010.03
2016-06-09T05:49:18.149Z,1010.01
2016-06-09T05:52:32.380Z,1010.03
2016-06-09T05:55:50.218Z,1009.95
2016-06-09T05:58:55.836Z,1010.03
2016-06-09T06:02:10.346Z,1009.97
2016-06-09T06:05:24.620Z,1010.03
2016-06-09T06:08:38.960Z,1010.05
2016-06-09T06:11:49.876Z,1010.07
2016-06-09T06:15:04.120Z,1010.01
2016-06-09T06:18:18.488Z,1010.03
2016-06-09T06:21:32.517Z,1010.01
2016-06-09T06:24:50.323Z,1010.03
2016-06-09T06:27:56.097Z,1010.23
2016-06-09T06:31:07.794Z,1010.23
2016-06-09T06:34:21.897Z,1010.19
2016-06-09T06:37:35.941Z,1010.19
2016-06-09T06:40:50.168Z,1010.21
2016-06-09T06:44:03.225Z,1010.27
2016-06-09T06:47:18.561Z,1010.25
2016-06-09T06:50:33.340Z,1010.23
2016-06-09T06:53:50.724Z,1010.23
2016-06-09T06:56:56.233Z,1010.25
2016-06-09T07:00:10.196Z,1010.29
2016-06-09T07:03:22.049Z,1010.29
2016-06-09T07:06:35.842Z,1010.25
2016-06-09T07:09:49.789Z,1010.23
2016-06-09T07:13:04.251Z,1010.29
2016-06-09T07:16:18.713Z,1010.19
2016-06-09T07:19:33.288Z,1010.23
2016-06-09T07:22:49.672Z,1010.25
2016-06-09T07:25:55.573Z,1010.19
2016-06-09T07:29:10.378Z,1010.11
2016-06-09T07:32:25.482Z,1010.19
2016-06-09T07:35:44.478Z,1009.99
2016-06-09T07:38:50.815Z,1010.05
2016-06-09T07:42:05.480Z,1010.15
2016-06-09T07:45:19.834Z,1010.21
2016-06-09T07:48:34.159Z,1010.23
2016-06-09T07:51:52.747Z,1010.23
2016-06-09T07:54:58.708Z,1009.74
2016-06-09T07:58:13.249Z,1010.17
2016-06-09T08:01:27.946Z,1010.15
2016-06-09T08:04:46.114Z,1010.23
2016-06-09T08:07:51.374Z,1010.23
2016-06-09T08:11:04.180Z,1010.21
2016-06-09T08:14:16.486Z,1010.23
2016-06-09T08:17:30.917Z,1010.23
2016-06-09T08:20:49.210Z,1010.21
2016-06-09T08:23:54.673Z,1010.13
2016-06-09T08:27:09.316Z,1010.07
2016-06-09T08:30:22.249Z,1010.09
2016-06-09T08:33:36.822Z,1010.11
2016-06-09T08:36:50.889Z,1010.07
2016-06-09T08:40:04.960Z,1010.09
2016-06-09T08:43:19.085Z,1010.07
2016-06-09T08:46:33.004Z,1010.03
2016-06-09T08:49:51.395Z,1010.13
2016-06-09T08:52:56.671Z,1010.15
2016-06-09T08:56:10.995Z,1010.09
2016-06-09T08:59:23.160Z,1010.05
2016-06-09T09:02:37.608Z,1010.03
2016-06-09T09:05:52.321Z,1010.01
2016-06-09T09:09:06.424Z,1009.95
2016-06-09T09:12:19.402Z,1010.01
2016-06-09T09:15:33.818Z,1009.91
2016-06-09T09:18:52.565Z,1009.62
2016-06-09T09:21:59.699Z,1009.58
2016-06-09T09:25:15.458Z,1009.52
2016-06-09T09:28:31.249Z,1009.54
2016-06-09T09:31:51.010Z,1009.64
2016-06-09T09:34:58.035Z,1009.76
2016-06-09T09:38:12.639Z,1009.66
2016-06-09T09:41:26.038Z,1009.72
2016-06-09T09:44:36.454Z,1009.72
2016-06-09T09:47:54.262Z,1009.82
2016-06-09T09:50:59.695Z,1009.74
2016-06-09T09:54:13.547Z,1009.82
2016-06-09T09:57:27.165Z,1009.87
2016-06-09T10:00:40.522Z,1009.95
2016-06-09T10:03:54.093Z,1009.89
2016-06-09T10:07:08.008Z,1009.93
2016-06-09T10:10:22.486Z,1010.05
2016-06-09T10:13:36.777Z,1009.89
2016-06-09T10:16:53.539Z,1009.95
2016-06-09T10:19:59.298Z,1010.01
2016-06-09T10:23:13.387Z,1009.97
2016-06-09T10:26:27.473Z,1009.93
2016-06-09T10:29:45.720Z,1009.93
2016-06-09T10:32:51.542Z,1009.93
2016-06-09T10:36:05.833Z,1009.85
2016-06-09T10:39:18.888Z,1009.91
2016-06-09T10:42:32.945Z,1009.91
2016-06-09T10:45:50.786Z,1009.89
2016-06-09T10:48:56.279Z,1009.91
2016-06-09T10:52:10.351Z,1009.91
2016-06-09T10:55:23.952Z,1009.89
2016-06-09T10:58:38.197Z,1009.89
2016-06-09T11:02:01.069Z,1009.8
2016-06-09T11:05:06.422Z,1009.87
2016-06-09T11:08:20.540Z,1009.87
2016-06-09T11:11:34.784Z,1009.89
2016-06-09T11:14:52.921Z,1009.84
2016-06-09T11:17:59.070Z,1009.91
2016-06-09T11:21:13.940Z,1009.85
2016-06-09T11:24:28.589Z,1009.82
2016-06-09T11:27:47.290Z,1009.72
2016-06-09T11:30:52.938Z,1009.68
2016-06-09T11:34:06.230Z,1009.7
2016-06-09T11:37:20.535Z,1009.66
2016-06-09T11:40:31.701Z,1009.74
2016-06-09T11:43:49.557Z,1009.7
2016-06-09T11:46:55.504Z,1009.6
2016-06-09T11:50:09.497Z,1009.56
2016-06-09T11:53:23.475Z,1009.48
2016-06-09T11:56:37.719Z,1009.54
2016-06-09T11:59:51.512Z,1009.52
2016-06-09T12:03:03.350Z,1009.5
2016-06-09T12:06:16.671Z,1009.5
2016-06-09T12:09:31.243Z,1009.48
2016-06-09T12:12:49.661Z,1009.34
2016-06-09T12:15:55.359Z,1009.4
2016-06-09T12:19:09.305Z,1009.38
2016-06-09T12:22:24.173Z,1009.18
2016-06-09T12:25:38.901Z,1009.18
2016-06-09T12:28:53.492Z,1009.22
2016-06-09T12:32:08.204Z,1009.16
2016-06-09T12:35:20.760Z,1009.14
2016-06-09T12:38:36.348Z,1009.14
2016-06-09T12:41:54.360Z,1009.14
2016-06-09T12:44:59.479Z,1009.14
2016-06-09T12:48:13.566Z,1009.1
2016-06-09T12:51:25.685Z,1009.14
2016-06-09T12:54:38.084Z,1009.06
2016-06-09T12:57:52.800Z,1009.08
2016-06-09T13:01:07.200Z,1009.04
2016-06-09T13:04:21.834Z,1009.06
2016-06-09T13:07:36.266Z,1009.04
2016-06-09T13:10:52.418Z,1008.82
2016-06-09T13:13:58.224Z,1008.92
2016-06-09T13:17:12.249Z,1008.86
2016-06-09T13:20:26.931Z,1008.74
2016-06-09T13:23:41.689Z,1008.8
2016-06-09T13:26:56.139Z,1008.76
2016-06-09T13:30:10.383Z,1008.64
2016-06-09T13:33:24.282Z,1008.66
2016-06-09T13:36:38.386Z,1008.68
2016-06-09T13:39:52.492Z,1008.66
2016-06-09T13:43:06.704Z,1008.6
2016-06-09T13:46:20.854Z,1008.76
2016-06-09T13:49:34.895Z,1008.66
2016-06-09T13:52:52.813Z,1008.76
2016-06-09T13:55:57.275Z,1008.7
2016-06-09T13:59:10.691Z,1008.8
2016-06-09T14:02:25.277Z,1008.74
2016-06-09T14:05:39.537Z,1008.74
2016-06-09T14:08:54.096Z,1008.62
2016-06-09T14:12:08.465Z,1008.6
2016-06-09T14:15:22.724Z,1008.5
2016-06-09T14:18:36.140Z,1008.56
2016-06-09T14:21:53.715Z,1008.58
2016-06-09T14:24:59.551Z,1008.52
2016-06-09T14:28:13.171Z,1008.44
2016-06-09T14:31:27.602Z,1008.48
2016-06-09T14:34:42.017Z,1008.44
2016-06-09T14:37:56.749Z,1008.34
2016-06-09T14:41:11.351Z,1008.32
2016-06-09T14:44:24.906Z,1008.32
2016-06-09T14:47:38.807Z,1008.26
2016-06-09T14:50:51.335Z,1008.24
2016-06-09T14:54:06.375Z,1008.2
2016-06-09T14:57:20.213Z,1008.1
2016-06-09T15:00:33.956Z,1008.22
2016-06-09T15:03:52.125Z,1008.12
2016-06-09T15:06:58.072Z,1008.14
2016-06-09T15:10:10.722Z,1008.1
2016-06-09T15:13:25.137Z,1008.04
2016-06-09T15:16:37.459Z,1008.1
2016-06-09T15:19:54.220Z,1007.97
2016-06-09T15:22:59.871Z,1008.08
2016-06-09T15:26:14.458Z,1008.06
2016-06-09T15:29:28.936Z,1008.04
2016-06-09T15:32:41.664Z,1007.97
2016-06-09T15:35:55.863Z,1007.97
2016-06-09T15:39:10.092Z,1007.93
2016-06-09T15:42:24.288Z,1007.93
2016-06-09T15:45:38.360Z,1007.81
2016-06-09T15:48:52.934Z,1007.91
2016-06-09T15:52:07.429Z,1007.91
2016-06-09T15:55:22.188Z,1007.95
2016-06-09T15:58:36.416Z,1007.87
2016-06-09T16:01:55.147Z,1007.87
2016-06-09T16:05:01.155Z,1007.77
2016-06-09T16:08:15.775Z,1007.75
2016-06-09T16:11:30.018Z,1007.75
2016-06-09T16:14:48.340Z,1007.71
2016-06-09T16:17:54.493Z,1007.71
2016-06-09T16:21:09.315Z,1007.65
2016-06-09T16:24:23.839Z,1007.63
2016-06-09T16:27:38.676Z,1007.67
2016-06-09T16:30:54.377Z,1007.71
2016-06-09T16:34:00.542Z,1007.67
2016-06-09T16:37:12.239Z,1007.59
2016-06-09T16:40:24.701Z,1007.65
2016-06-09T16:43:39.320Z,1007.55
2016-06-09T16:46:54.020Z,1007.51
2016-06-09T16:50:08.607Z,1007.49
2016-06-09T16:53:23.632Z,1007.53
2016-06-09T16:56:38.062Z,1007.51
2016-06-09T16:59:52.743Z,1007.61
2016-06-09T17:03:07.037Z,1007.57
2016-06-09T17:06:21.703Z,1007.39
2016-06-09T17:09:36.275Z,1007.43
2016-06-09T17:12:54.487Z,1007.39
2016-06-09T17:16:00.484Z,1007.47
2016-06-09T17:19:14.962Z,1007.39
2016-06-09T17:22:29.690Z,1007.39
2016-06-09T17:25:42.792Z,1007.27
2016-06-09T17:28:56.367Z,1007.29
2016-06-09T17:32:10.039Z,1007.33
2016-06-09T17:35:24.830Z,1007.33
2016-06-09T17:38:39.060Z,1007.29
2016-06-09T17:41:53.846Z,1007.25
2016-06-09T17:45:08.084Z,1007.33
2016-06-09T17:48:20.054Z,1007.25
2016-06-09T17:51:34.788Z,1007.29
2016-06-09T17:54:49.955Z,1007.21
2016-06-09T17:57:56.044Z,1007.23
2016-06-09T18:01:10.511Z,1007.27
2016-06-09T18:04:25.333Z,1007.31
2016-06-09T18:07:38.093Z,1007.29
2016-06-09T18:10:56.757Z,1007.15
2016-06-09T18:14:02.911Z,1007.17
2016-06-09T18:17:15.435Z,1007.17
2016-06-09T18:20:27.054Z,1007.23
2016-06-09T18:23:42.953Z,1007.21
2016-06-09T18:26:54.823Z,1007.15
2016-06-09T18:30:09.600Z,1007.19
2016-06-09T18:33:24.187Z,1007.21
2016-06-09T18:36:38.696Z,1007.11
2016-06-09T18:39:54.550Z,1007.19
2016-06-09T18:46:10.196Z,1007.11
2016-06-09T18:49:24.611Z,1007.09
2016-06-09T18:52:38.824Z,1007.07
2016-06-09T18:55:55.208Z,1007.07
2016-06-09T18:59:00.939Z,1007.01
2016-06-09T19:02:14.995Z,1007.07
2016-06-09T19:05:28.989Z,1007.15
2016-06-09T19:08:42.436Z,1007.15
2016-06-09T19:11:55.867Z,1007.17
2016-06-09T19:15:09.566Z,1007.17
2016-06-09T19:18:22.779Z,1007.19
2016-06-09T19:21:35.945Z,1007.15
2016-06-09T19:24:50.297Z,1007.23
2016-06-09T19:27:59.525Z,1007.19
2016-06-09T19:31:04.740Z,1007.19
2016-06-09T19:34:18.000Z,1007.27
2016-06-09T19:37:31.494Z,1007.21
2016-06-09T19:40:45.612Z,1007.35
2016-06-09T19:43:57.965Z,1007.27
2016-06-09T19:47:12.025Z,1007.29
2016-06-09T19:50:25.674Z,1007.37
2016-06-09T19:53:39.183Z,1007.35
2016-06-09T19:56:57.567Z,1007.43
2016-06-09T20:00:02.408Z,1007.31
2016-06-09T20:03:16.401Z,1007.37
2016-06-09T20:06:30.130Z,1007.27
2016-06-09T20:09:41.357Z,1007.37
2016-06-09T20:12:57.898Z,1007.31
2016-06-09T20:16:03.020Z,1007.31
2016-06-09T20:19:16.920Z,1007.25
2016-06-09T20:22:27.460Z,1007.25
2016-06-09T20:25:40.954Z,1007.13
2016-06-09T20:28:58.697Z,1007.19
2016-06-09T20:32:04.022Z,1007.17
2016-06-09T20:35:17.781Z,1007.25
2016-06-09T20:38:31.494Z,1007.23
2016-06-09T20:41:44.675Z,1007.17
2016-06-09T20:45:02.747Z,1007.15
2016-06-09T20:48:08.134Z,1007.13
2016-06-09T20:51:21.439Z,1007.15
2016-06-09T20:54:36.042Z,1007.15
2016-06-09T20:57:46.568Z,1007.17
2016-06-09T21:01:03.092Z,1007.11
2016-06-09T21:04:08.448Z,1007.25
2016-06-09T21:07:22.349Z,1007.17
2016-06-09T21:10:36.061Z,1007.21
2016-06-09T21:13:49.851Z,1007.21
2016-06-09T21:17:02.110Z,1007.19
2016-06-09T21:20:15.716Z,1007.11
2016-06-09T21:23:29.538Z,1007.13
2016-06-09T21:26:42.626Z,1007.19
2016-06-09T21:29:59.994Z,1007.09
2016-06-09T21:33:05.147Z,1007.11
2016-06-09T21:36:19.250Z,1007.07
2016-06-09T21:39:33.259Z,1007.07
2016-06-09T21:42:45.034Z,1007.05
2016-06-09T21:46:02.777Z,1007.03
2016-06-09T21:49:07.805Z,1007.15
2016-06-09T21:52:21.174Z,1007.11
2016-06-09T21:55:35.152Z,1007.05
2016-06-09T21:58:49.302Z,1007.07
2016-06-09T22:02:03.577Z,1007.01
2016-06-09T22:05:17.417Z,1007.07
2016-06-09T22:08:31.270Z,1007.05
2016-06-09T22:11:45.154Z,1007.05
2016-06-09T22:15:01.741Z,1006.99
2016-06-09T22:18:07.426Z,1007.01
2016-06-09T22:21:20.904Z,1007.01
2016-06-09T22:24:35.475Z,1007.03
2016-06-09T22:27:48.813Z,1006.97
2016-06-09T22:31:07.388Z,1006.89
2016-06-09T22:34:13.272Z,1006.93
2016-06-09T22:37:27.812Z,1006.81
2016-06-09T22:40:41.884Z,1006.87
2016-06-09T22:44:00.159Z,1006.75
2016-06-09T22:47:06.293Z,1006.77
2016-06-09T22:50:20.680Z,1006.75
2016-06-09T22:53:35.049Z,1006.79
2016-06-09T22:56:47.996Z,1006.75
2016-06-09T23:00:06.379Z,1006.79
2016-06-09T23:03:12.455Z,1006.71
2016-06-09T23:06:26.887Z,1006.61
2016-06-09T23:09:40.457Z,1006.63
2016-06-09T23:12:54.686Z,1006.67
2016-06-09T23:16:08.745Z,1006.61
2016-06-09T23:19:23.426Z,1006.54
2016-06-09T23:22:38.075Z,1006.5
2016-06-09T23:25:52.100Z,1006.48
2016-06-09T23:29:09.160Z,1006.55
2016-06-09T23:32:14.981Z,1006.67
2016-06-09T23:35:28.976Z,1006.61
2016-06-09T23:38:43.624Z,1006.65
2016-06-09T23:42:01.462Z,1006.65
2016-06-09T23:45:14.382Z,1006.65
2016-06-09T23:48:20.297Z,1006.65
2016-06-09T23:51:34.742Z,1006.65
2016-06-09T23:54:49.299Z,1006.69
2016-06-09T23:58:06.621Z,1006.57
